Time;durP1;ratioP1;P1;durP2;ratioP2;P2;SDS_P1;SDS_P2;PMS_P1;PMS_P2;Temp;Humidity;BMP_temperature;BMP_pressure;BME280_temperature;BME280_humidity;BME280_pressure;Samples;Min_cycle;Max_cycle;Signal;HPM_P1;HPM_P2
2022/10/28 00:01:17;;;;;;;6.20;3.47;;;17.20;91.10;;;;;;5110052;27;20472;-69
2022/10/28 00:03:49;;;;;;;2.50;2.23;;;17.20;91.10;;;;;;5097821;28;20444;-70
2022/10/28 00:06:19;;;;;;;4.23;2.47;;;17.20;91.10;;;;;;5074412;28;20467;-70
2022/10/28 00:08:48;;;;;;;4.33;2.57;;;17.20;91.10;;;;;;5081346;28;20460;-70
2022/10/28 00:11:19;;;;;;;3.10;2.77;;;17.20;91.10;;;;;;5096925;27;20473;-70
2022/10/28 00:13:47;;;;;;;4.33;1.80;;;17.20;91.10;;;;;;5081212;28;20919;-70
2022/10/28 00:16:19;;;;;;;2.03;1.87;;;17.20;91.10;;;;;;5079436;28;20503;-70
2022/10/28 00:18:51;;;;;;;3.83;2.60;;;17.20;91.10;;;;;;5099900;28;20498;-70
2022/10/28 00:21:22;;;;;;;2.40;2.20;;;17.20;91.00;;;;;;5073270;28;20916;-69
2022/10/28 00:23:51;;;;;;;2.73;2.53;;;17.20;91.00;;;;;;5084933;28;20463;-70
2022/10/28 00:26:21;;;;;;;3.30;2.17;;;17.20;91.00;;;;;;5073614;28;20572;-70
2022/10/28 00:28:52;;;;;;;3.83;2.60;;;17.20;91.00;;;;;;5078075;28;20468;-70
2022/10/28 00:31:22;;;;;;;2.90;2.40;;;17.20;91.00;;;;;;5110671;27;20545;-70
2022/10/28 00:33:52;;;;;;;3.70;2.70;;;17.20;91.00;;;;;;5097237;28;20452;-70
2022/10/28 00:36:23;;;;;;;4.77;2.77;;;17.20;91.00;;;;;;5093505;27;20469;-70
2022/10/28 00:38:53;;;;;;;3.23;2.70;;;17.20;91.00;;;;;;5082671;28;20465;-70
2022/10/28 00:41:23;;;;;;;3.33;2.20;;;17.30;91.00;;;;;;5082606;28;20467;-70
2022/10/28 00:43:55;;;;;;;2.77;2.20;;;17.20;91.00;;;;;;5062696;28;20439;-70
2022/10/28 00:46:29;;;;;;;2.63;2.30;;;17.30;91.00;;;;;;5074218;28;20476;-70
2022/10/28 00:49:03;;;;;;;3.43;3.13;;;17.30;90.90;;;;;;5095347;28;20982;-70
2022/10/28 00:51:33;;;;;;;2.23;2.03;;;17.30;91.00;;;;;;5080028;28;20483;-70
2022/10/28 00:54:04;;;;;;;2.37;2.00;;;17.30;90.90;;;;;;5078544;28;20433;-70
2022/10/28 00:56:34;;;;;;;7.33;2.70;;;17.20;90.90;;;;;;5077667;28;20484;-70
2022/10/28 00:59:07;;;;;;;4.13;2.10;;;17.30;90.90;;;;;;5084424;28;20868;-70
2022/10/28 01:01:35;;;;;;;2.70;2.10;;;17.20;90.90;;;;;;5082258;28;20485;-70
2022/10/28 01:04:06;;;;;;;2.93;2.40;;;17.30;90.90;;;;;;5111695;28;20483;-70
2022/10/28 01:06:35;;;;;;;4.60;2.40;;;17.30;90.90;;;;;;5078100;28;20472;-70
2022/10/28 01:09:03;;;;;;;2.80;2.00;;;17.30;90.90;;;;;;5079743;28;20461;-70
2022/10/28 01:11:43;;;;;;;2.20;2.03;;;17.30;90.90;;;;;;5080167;28;20480;-70
2022/10/28 01:14:20;;;;;;;2.10;1.70;;;17.30;90.90;;;;;;5095438;28;20440;-70
2022/10/28 01:17:00;;;;;;;4.97;2.70;;;17.30;90.90;;;;;;5073241;28;20567;-70
2022/10/28 01:20:19;;;;;;;5.00;2.63;;;17.30;90.90;;;;;;5101533;28;20505;-70
2022/10/28 01:22:55;;;;;;;4.00;2.23;;;17.30;90.90;;;;;;5070848;28;20490;-71
2022/10/28 01:25:42;;;;;;;3.00;2.03;;;17.30;90.90;;;;;;5079425;28;20490;-70
2022/10/28 01:28:28;;;;;;;2.47;2.17;;;17.30;90.80;;;;;;5095514;28;20889;-70
2022/10/28 01:31:17;;;;;;;2.70;2.30;;;17.30;90.80;;;;;;5080911;28;20478;-70
2022/10/28 01:33:52;;;;;;;2.87;1.93;;;17.30;90.80;;;;;;5083010;28;20950;-70
2022/10/28 01:36:31;;;;;;;2.80;2.00;;;17.30;90.90;;;;;;5090192;28;20552;-70
2022/10/28 01:39:13;;;;;;;3.10;2.30;;;17.30;90.90;;;;;;5095399;28;20472;-70
2022/10/28 01:41:49;;;;;;;3.37;2.10;;;17.30;90.80;;;;;;5078987;28;20477;-70
2022/10/28 01:44:26;;;;;;;2.80;2.10;;;17.30;90.90;;;;;;5098320;28;20450;-70
2022/10/28 01:47:03;;;;;;;4.77;2.40;;;17.30;90.80;;;;;;5076521;28;20517;-70
2022/10/28 01:49:41;;;;;;;3.27;2.00;;;17.30;90.90;;;;;;5075585;28;20460;-70
2022/10/28 01:52:13;;;;;;;3.50;2.70;;;17.30;90.80;;;;;;5114572;28;20520;-70
2022/10/28 01:54:45;;;;;;;5.33;2.50;;;17.30;90.90;;;;;;5078207;28;20440;-70
2022/10/28 01:57:16;;;;;;;2.53;2.30;;;17.30;90.90;;;;;;5086303;28;20467;-70
2022/10/28 01:59:47;;;;;;;3.10;2.13;;;17.30;90.90;;;;;;5095846;28;20463;-69
2022/10/28 02:02:18;;;;;;;3.37;3.07;;;17.30;90.90;;;;;;5081731;28;20447;-70
2022/10/28 02:04:46;;;;;;;3.83;2.20;;;17.30;90.80;;;;;;5109283;22;20532;-74
2022/10/28 02:07:16;;;;;;;3.70;2.07;;;17.30;90.90;;;;;;5115963;27;20432;-72
2022/10/28 02:10:00;;;;;;;3.10;2.30;;;17.30;90.90;;;;;;5090043;28;20492;-72
2022/10/28 02:12:31;;;;;;;3.87;2.60;;;17.30;90.80;;;;;;5091229;28;20486;-73
2022/10/28 02:15:23;;;;;;;3.63;2.20;;;17.30;90.90;;;;;;5109737;28;20533;-73
2022/10/28 02:18:06;;;;;;;4.23;2.67;;;17.30;90.80;;;;;;5077764;28;20445;-72
2022/10/28 02:20:40;;;;;;;2.43;2.23;;;17.30;90.80;;;;;;5091541;28;20465;-73
2022/10/28 02:23:20;;;;;;;2.93;2.30;;;17.30;90.80;;;;;;5103158;28;20455;-73
2022/10/28 02:25:56;;;;;;;3.63;2.63;;;17.30;90.80;;;;;;5089013;28;20464;-71
2022/10/28 02:28:32;;;;;;;4.53;1.97;;;17.30;90.90;;;;;;5091550;28;20464;-72
2022/10/28 02:31:07;;;;;;;4.07;2.77;;;17.30;90.90;;;;;;5102292;27;20456;-74
2022/10/28 02:33:40;;;;;;;3.03;2.40;;;17.30;90.80;;;;;;5090392;28;20538;-73
2022/10/28 02:36:13;;;;;;;2.97;1.93;;;17.30;90.80;;;;;;5090565;28;20891;-71
2022/10/28 02:38:47;;;;;;;3.60;1.80;;;17.30;90.80;;;;;;5092932;28;20548;-74
2022/10/28 02:41:20;;;;;;;2.77;2.13;;;17.30;90.80;;;;;;5102564;28;20472;-73
2022/10/28 02:43:52;;;;;;;2.37;2.10;;;17.30;90.80;;;;;;5088455;28;20464;-72
2022/10/28 02:46:23;;;;;;;2.27;2.00;;;17.30;90.80;;;;;;5090306;28;20541;-72
2022/10/28 02:48:55;;;;;;;2.83;2.23;;;17.30;90.80;;;;;;5098294;28;20468;-72
2022/10/28 02:51:28;;;;;;;3.50;2.50;;;17.30;90.80;;;;;;5107268;28;20499;-73
2022/10/28 02:54:04;;;;;;;6.17;2.50;;;17.30;90.90;;;;;;5103266;28;21005;-73
2022/10/28 02:56:38;;;;;;;3.60;2.60;;;17.30;90.90;;;;;;5086514;28;20522;-74
2022/10/28 02:59:09;;;;;;;4.93;2.40;;;17.30;90.80;;;;;;5091476;28;20487;-72
2022/10/28 03:01:38;;;;;;;3.40;2.13;;;17.30;90.80;;;;;;5090433;27;21164;-72
2022/10/28 03:04:08;;;;;;;5.00;2.20;;;17.30;90.80;;;;;;5088701;28;20515;-73
2022/10/28 03:06:36;;;;;;;3.30;1.80;;;17.30;90.80;;;;;;5066410;28;20477;-73
2022/10/28 03:09:06;;;;;;;2.30;1.73;;;17.30;90.80;;;;;;5078929;28;20464;-72
2022/10/28 03:11:34;;;;;;;2.60;2.07;;;17.30;90.80;;;;;;5089719;28;20504;-73
2022/10/28 03:14:03;;;;;;;2.27;2.07;;;17.30;90.80;;;;;;5091484;28;20442;-73
2022/10/28 03:16:31;;;;;;;2.70;2.03;;;17.30;90.80;;;;;;5106670;27;20455;-74
2022/10/28 03:19:00;;;;;;;2.83;2.30;;;17.30;90.80;;;;;;5088261;28;20467;-73
2022/10/28 03:21:29;;;;;;;3.33;2.17;;;17.30;90.80;;;;;;5091431;28;21092;-73
2022/10/28 03:23:58;;;;;;;4.57;2.20;;;17.20;90.80;;;;;;5091576;28;20440;-74
2022/10/28 03:26:26;;;;;;;3.00;2.37;;;17.30;90.80;;;;;;5090279;28;20556;-74
2022/10/28 03:28:54;;;;;;;1.90;1.70;;;17.30;90.80;;;;;;5091488;28;21026;-74
2022/10/28 03:31:23;;;;;;;2.37;2.00;;;17.30;90.80;;;;;;5073065;28;21036;-72
2022/10/28 03:33:51;;;;;;;2.40;1.90;;;17.30;90.80;;;;;;5083971;28;20440;-72
2022/10/28 03:36:19;;;;;;;3.17;2.60;;;17.30;90.80;;;;;;5108714;28;21057;-73
2022/10/28 03:38:49;;;;;;;3.93;2.07;;;17.30;90.80;;;;;;5091406;28;21049;-73
2022/10/28 03:41:17;;;;;;;2.50;2.30;;;17.30;90.80;;;;;;5091216;28;20509;-73
2022/10/28 03:43:46;;;;;;;4.20;2.30;;;17.30;90.80;;;;;;5099565;28;20420;-73
2022/10/28 03:46:14;;;;;;;3.50;3.00;;;17.30;90.80;;;;;;5090033;28;20521;-73
2022/10/28 03:48:43;;;;;;;2.10;1.90;;;17.30;90.80;;;;;;5089250;28;21042;-74
2022/10/28 03:51:12;;;;;;;2.47;2.27;;;17.30;90.80;;;;;;5090253;28;21077;-73
2022/10/28 03:53:40;;;;;;;2.30;2.10;;;17.30;90.80;;;;;;5091257;28;20435;-74
2022/10/28 03:56:11;;;;;;;2.37;2.07;;;17.30;90.80;;;;;;5084826;28;20479;-73
2022/10/28 03:58:39;;;;;;;2.47;2.00;;;17.30;90.80;;;;;;5090890;28;20459;-73
2022/10/28 04:01:08;;;;;;;4.77;2.30;;;17.30;90.80;;;;;;5089924;28;20500;-73
2022/10/28 04:03:37;;;;;;;2.47;2.00;;;17.30;90.80;;;;;;5097339;28;20926;-73
2022/10/28 04:06:06;;;;;;;3.57;2.70;;;17.30;90.80;;;;;;5090028;28;20526;-74
2022/10/28 04:08:34;;;;;;;3.80;2.20;;;17.30;90.80;;;;;;5091103;28;20482;-73
2022/10/28 04:11:03;;;;;;;3.97;2.43;;;17.30;90.80;;;;;;5084422;28;20583;-72
2022/10/28 04:13:33;;;;;;;2.20;1.93;;;17.20;90.70;;;;;;5090844;28;20435;-73
2022/10/28 04:16:01;;;;;;;4.57;2.30;;;17.30;90.80;;;;;;5089542;28;20798;-74
2022/10/28 04:18:30;;;;;;;3.27;1.77;;;17.30;90.70;;;;;;5089798;28;21013;-73
2022/10/28 04:20:59;;;;;;;2.13;1.93;;;17.30;90.70;;;;;;5089704;28;20541;-72
2022/10/28 04:23:28;;;;;;;2.97;2.30;;;17.30;90.80;;;;;;5090584;28;20434;-73
2022/10/28 04:25:56;;;;;;;2.13;2.00;;;17.30;90.70;;;;;;5090018;28;20573;-72
2022/10/28 04:28:24;;;;;;;1.90;1.53;;;17.30;90.70;;;;;;5090312;28;20467;-73
2022/10/28 04:30:54;;;;;;;3.33;2.13;;;17.30;90.70;;;;;;5089774;28;20476;-73
2022/10/28 04:33:22;;;;;;;2.90;2.00;;;17.30;90.80;;;;;;5073755;28;20945;-72
2022/10/28 04:35:51;;;;;;;4.30;2.13;;;17.30;90.80;;;;;;5089395;28;20499;-71
2022/10/28 04:38:19;;;;;;;2.43;2.23;;;17.30;90.80;;;;;;5108681;28;20476;-71
2022/10/28 04:40:48;;;;;;;2.70;1.90;;;17.30;90.70;;;;;;5095017;28;20565;-73
2022/10/28 04:43:17;;;;;;;2.33;2.13;;;17.30;90.70;;;;;;5090558;28;20503;-72
2022/10/28 04:45:46;;;;;;;4.53;2.60;;;17.30;90.80;;;;;;5081142;28;20534;-73
2022/10/28 04:48:16;;;;;;;2.80;2.57;;;17.30;90.70;;;;;;5082278;28;20805;-73
2022/10/28 04:50:45;;;;;;;2.20;2.00;;;17.30;90.80;;;;;;5081253;28;20482;-71
2022/10/28 04:53:14;;;;;;;1.97;1.80;;;17.30;90.70;;;;;;5090257;28;20716;-73
2022/10/28 04:55:42;;;;;;;4.23;2.13;;;17.30;91.30;;;;;;5078619;28;20568;-73
2022/10/28 04:58:10;;;;;;;2.90;2.47;;;17.30;90.80;;;;;;5102905;28;20445;-73
2022/10/28 05:00:39;;;;;;;2.67;2.07;;;17.30;90.90;;;;;;5090480;28;20505;-73
2022/10/28 05:03:07;;;;;;;3.90;2.17;;;17.30;90.90;;;;;;5089757;28;20474;-73
2022/10/28 05:05:37;;;;;;;2.43;2.23;;;17.30;90.80;;;;;;5089788;28;20458;-73
2022/10/28 05:08:06;;;;;;;2.50;1.93;;;17.30;90.80;;;;;;5091323;28;20472;-73
2022/10/28 05:10:34;;;;;;;7.13;2.50;;;17.30;90.80;;;;;;5089994;28;21370;-72
2022/10/28 05:13:02;;;;;;;2.67;1.77;;;17.30;90.80;;;;;;5078626;28;20440;-73
2022/10/28 05:15:31;;;;;;;2.43;1.80;;;17.30;90.80;;;;;;5088062;28;20442;-73
2022/10/28 05:17:59;;;;;;;4.20;2.07;;;17.30;90.80;;;;;;5089672;28;20459;-74
2022/10/28 05:20:28;;;;;;;3.07;2.50;;;17.30;90.80;;;;;;5089860;28;20855;-73
2022/10/28 05:22:57;;;;;;;2.83;2.10;;;17.30;90.80;;;;;;5090470;28;20467;-73
2022/10/28 05:25:26;;;;;;;5.50;2.57;;;17.30;90.80;;;;;;5088469;28;20429;-73
2022/10/28 05:27:57;;;;;;;2.80;2.10;;;17.30;90.80;;;;;;5088742;28;20540;-73
2022/10/28 05:30:26;;;;;;;3.20;2.10;;;17.30;90.80;;;;;;5093476;28;20467;-74
2022/10/28 05:33:00;;;;;;;3.70;1.80;;;17.30;90.80;;;;;;5093391;28;20428;-73
2022/10/28 05:35:29;;;;;;;2.57;1.90;;;17.30;90.80;;;;;;5093896;28;20711;-72
2022/10/28 05:37:58;;;;;;;2.43;2.20;;;17.30;90.80;;;;;;5093303;28;20455;-73
2022/10/28 05:40:27;;;;;;;1.93;1.80;;;17.30;90.80;;;;;;5093297;28;21011;-73
2022/10/28 05:42:55;;;;;;;3.33;2.20;;;17.30;90.70;;;;;;5092483;28;20460;-73
2022/10/28 05:45:24;;;;;;;3.50;2.00;;;17.30;90.80;;;;;;5092786;28;20455;-72
2022/10/28 05:47:52;;;;;;;2.90;2.10;;;17.30;90.70;;;;;;5082557;28;20453;-73
2022/10/28 05:50:22;;;;;;;2.40;1.70;;;17.30;90.80;;;;;;5093708;28;21036;-73
2022/10/28 05:52:51;;;;;;;3.00;2.10;;;17.30;90.70;;;;;;5093453;28;20432;-73
2022/10/28 05:55:23;;;;;;;2.73;2.13;;;17.30;90.80;;;;;;5089351;28;20502;-71
2022/10/28 05:57:52;;;;;;;2.13;1.80;;;17.30;90.70;;;;;;5092979;28;20515;-73
2022/10/28 06:00:23;;;;;;;2.07;1.90;;;17.30;90.70;;;;;;5092705;28;20927;-72
2022/10/28 06:02:52;;;;;;;3.20;2.40;;;17.30;90.70;;;;;;5102722;28;21039;-73
2022/10/28 06:05:20;;;;;;;4.10;2.20;;;17.30;90.70;;;;;;5091536;28;20869;-72
2022/10/28 06:07:49;;;;;;;2.67;2.00;;;17.30;90.70;;;;;;5093119;28;20523;-71
2022/10/28 06:10:17;;;;;;;2.50;2.30;;;17.30;90.70;;;;;;5115934;27;21041;-72
2022/10/28 06:12:47;;;;;;;2.80;2.50;;;17.30;90.80;;;;;;5072779;28;20468;-71
2022/10/28 06:15:15;;;;;;;3.00;2.33;;;17.30;90.80;;;;;;5105992;28;20904;-73
2022/10/28 06:17:47;;;;;;;2.97;2.30;;;17.30;90.80;;;;;;5085906;28;20902;-72
2022/10/28 06:20:16;;;;;;;3.03;2.53;;;17.30;90.70;;;;;;5092995;28;20423;-71
2022/10/28 06:22:49;;;;;;;2.57;1.80;;;17.30;90.70;;;;;;5092408;28;20448;-73
2022/10/28 06:25:18;;;;;;;2.40;1.83;;;17.30;90.70;;;;;;5092269;28;20432;-72
2022/10/28 06:27:53;;;;;;;3.23;2.33;;;17.30;90.70;;;;;;5093436;28;20495;-73
2022/10/28 06:30:22;;;;;;;3.03;2.20;;;17.30;90.70;;;;;;5090550;28;20431;-72
2022/10/28 06:32:50;;;;;;;4.37;2.30;;;17.30;90.70;;;;;;5097357;27;20442;-72
2022/10/28 06:35:18;;;;;;;4.60;2.43;;;17.30;90.70;;;;;;5071854;28;20844;-73
2022/10/28 06:37:47;;;;;;;2.80;2.50;;;17.30;90.70;;;;;;5091706;28;20421;-72
2022/10/28 06:40:15;;;;;;;2.60;2.27;;;17.30;90.80;;;;;;5092776;28;20437;-72
2022/10/28 06:42:44;;;;;;;2.20;2.00;;;17.30;90.70;;;;;;5111725;28;20456;-73
2022/10/28 06:45:13;;;;;;;2.70;2.20;;;17.30;90.70;;;;;;5092926;28;20431;-72
2022/10/28 06:47:42;;;;;;;4.40;2.40;;;17.30;91.00;;;;;;5098707;28;20433;-73
2022/10/28 06:50:10;;;;;;;3.43;2.97;;;17.30;90.70;;;;;;5088844;28;20827;-72
2022/10/28 06:52:38;;;;;;;3.00;2.43;;;17.30;90.80;;;;;;5090749;28;20421;-72
2022/10/28 06:55:07;;;;;;;4.20;2.33;;;17.30;90.80;;;;;;5089253;28;20473;-73
2022/10/28 06:57:35;;;;;;;2.83;2.50;;;17.30;90.80;;;;;;5073832;28;20568;-73
2022/10/28 07:00:04;;;;;;;2.80;2.47;;;17.30;90.70;;;;;;5072815;28;20572;-72
2022/10/28 07:02:34;;;;;;;2.60;1.73;;;17.30;90.80;;;;;;5089058;28;20445;-68
2022/10/28 07:05:03;;;;;;;2.50;2.30;;;17.30;90.70;;;;;;5095041;28;20458;-72
2022/10/28 07:07:31;;;;;;;7.10;2.73;;;17.30;90.70;;;;;;5085774;28;20436;-71
2022/10/28 07:09:59;;;;;;;2.87;2.57;;;17.30;90.90;;;;;;5091381;28;20466;-73
2022/10/28 07:12:28;;;;;;;3.30;2.53;;;17.30;90.80;;;;;;5090182;28;20947;-72
2022/10/28 07:14:56;;;;;;;4.37;3.07;;;17.30;90.70;;;;;;5108432;28;20463;-72
2022/10/28 07:17:24;;;;;;;3.10;2.80;;;17.30;90.80;;;;;;5088963;28;20453;-72
2022/10/28 07:19:54;;;;;;;2.53;2.33;;;17.30;90.80;;;;;;5090982;28;20455;-74
2022/10/28 07:22:22;;;;;;;2.80;2.43;;;17.30;90.80;;;;;;5091442;28;20859;-72
2022/10/28 07:24:53;;;;;;;3.43;2.33;;;17.30;90.80;;;;;;5107964;28;20448;-73
2022/10/28 07:27:21;;;;;;;2.77;2.27;;;17.30;90.80;;;;;;5095456;28;20448;-72
2022/10/28 07:29:49;;;;;;;4.33;2.83;;;17.30;90.90;;;;;;5109618;28;20453;-72
2022/10/28 07:32:17;;;;;;;2.13;2.00;;;17.30;90.80;;;;;;5109191;28;20448;-72
2022/10/28 07:34:46;;;;;;;2.60;2.40;;;17.30;90.80;;;;;;5091699;28;20413;-72
2022/10/28 07:37:17;;;;;;;5.20;3.30;;;17.30;90.90;;;;;;5109527;28;20923;-72
2022/10/28 07:39:45;;;;;;;2.77;2.40;;;17.30;90.80;;;;;;5090914;28;20484;-72
2022/10/28 07:42:14;;;;;;;3.40;2.63;;;17.30;90.80;;;;;;5109363;27;20511;-71
2022/10/28 07:44:42;;;;;;;8.27;3.47;;;17.30;90.80;;;;;;5091095;28;20463;-71
2022/10/28 07:47:10;;;;;;;4.60;2.50;;;17.30;90.80;;;;;;5093015;28;20425;-73
2022/10/28 07:49:38;;;;;;;4.40;3.13;;;17.30;90.80;;;;;;5091195;28;20478;-73
2022/10/28 07:52:07;;;;;;;2.43;2.23;;;17.30;90.80;;;;;;5089318;28;20809;-73
2022/10/28 07:54:36;;;;;;;4.77;2.83;;;17.30;90.70;;;;;;5089714;28;20951;-73
2022/10/28 07:57:05;;;;;;;2.80;2.20;;;17.30;90.80;;;;;;5090481;28;20440;-72
2022/10/28 07:59:33;;;;;;;6.83;2.80;;;17.30;90.80;;;;;;5090976;28;20883;-72
2022/10/28 08:02:01;;;;;;;2.70;2.33;;;17.30;90.80;;;;;;5088534;28;20902;-71
2022/10/28 08:04:34;;;;;;;3.33;2.63;;;17.30;90.70;;;;;;5106375;22;20460;-70
2022/10/28 08:07:03;;;;;;;3.27;2.40;;;17.30;90.80;;;;;;5062230;28;20525;-69
2022/10/28 08:09:31;;;;;;;4.07;2.60;;;17.30;90.70;;;;;;5082301;28;20548;-70
2022/10/28 08:12:01;;;;;;;2.90;2.60;;;17.30;90.70;;;;;;5086675;28;20437;-70
2022/10/28 08:14:29;;;;;;;3.57;2.60;;;17.30;90.70;;;;;;5074328;28;20428;-70
2022/10/28 08:16:58;;;;;;;2.87;2.57;;;17.30;90.70;;;;;;5068264;28;20522;-70
2022/10/28 08:19:26;;;;;;;3.93;2.83;;;17.30;90.70;;;;;;5070614;28;21017;-69
2022/10/28 08:21:55;;;;;;;2.90;2.70;;;17.30;90.80;;;;;;5069996;28;20510;-70
2022/10/28 08:24:23;;;;;;;5.47;2.53;;;17.30;90.70;;;;;;5085216;28;20882;-70
2022/10/28 08:26:52;;;;;;;2.70;2.23;;;17.30;91.20;;;;;;5068810;28;20828;-69
2022/10/28 08:29:22;;;;;;;3.70;3.17;;;17.30;90.70;;;;;;5069454;28;20481;-70
2022/10/28 08:31:57;;;;;;;2.27;1.90;;;17.30;90.70;;;;;;5068777;28;20476;-70
2022/10/28 08:34:28;;;;;;;2.97;2.70;;;17.30;90.70;;;;;;5053729;28;20418;-69
2022/10/28 08:36:57;;;;;;;3.90;2.40;;;17.30;90.70;;;;;;5068525;28;20540;-69
2022/10/28 08:39:26;;;;;;;3.20;2.60;;;17.30;90.70;;;;;;5069678;28;20813;-69
2022/10/28 08:42:03;;;;;;;3.93;2.03;;;17.30;90.60;;;;;;5086871;28;20461;-69
2022/10/28 08:44:49;;;;;;;4.67;2.17;;;17.30;90.60;;;;;;5068844;28;20457;-70
2022/10/28 08:47:32;;;;;;;3.20;2.23;;;17.30;90.60;;;;;;5085403;28;20508;-69
2022/10/28 08:50:05;;;;;;;2.50;2.30;;;17.30;90.60;;;;;;5069583;28;20960;-70
2022/10/28 08:52:39;;;;;;;4.63;2.57;;;17.30;90.60;;;;;;5070739;28;20472;-70
2022/10/28 08:55:15;;;;;;;3.00;2.20;;;17.30;90.60;;;;;;5087237;28;20839;-69
2022/10/28 08:57:47;;;;;;;3.03;2.53;;;17.30;90.50;;;;;;5069052;28;20433;-69
2022/10/28 09:00:23;;;;;;;2.53;2.33;;;17.40;90.60;;;;;;5087272;28;20429;-69
2022/10/28 09:03:01;;;;;;;5.33;2.27;;;17.40;90.60;;;;;;5056952;28;20450;-69
2022/10/28 09:05:30;;;;;;;2.83;2.30;;;17.40;90.60;;;;;;5069571;28;20469;-70
2022/10/28 09:08:01;;;;;;;3.43;2.17;;;17.40;90.50;;;;;;5069037;28;20458;-69
2022/10/28 09:10:49;;;;;;;3.30;3.00;;;17.40;90.50;;;;;;5069733;28;20452;-69
2022/10/28 09:13:25;;;;;;;3.17;2.90;;;17.40;90.60;;;;;;5073650;28;20872;-69
2022/10/28 09:16:02;;;;;;;2.80;2.07;;;17.40;90.50;;;;;;5089752;28;20465;-69
2022/10/28 09:18:54;;;;;;;3.50;2.30;;;17.40;90.50;;;;;;5072537;28;20548;-69
2022/10/28 09:21:31;;;;;;;4.60;2.27;;;17.40;90.50;;;;;;5089172;28;20468;-69
2022/10/28 09:24:07;;;;;;;3.13;2.40;;;17.40;90.50;;;;;;5073592;28;20460;-70
2022/10/28 09:26:50;;;;;;;4.37;2.97;;;17.40;90.40;;;;;;5082312;28;20449;-70
2022/10/28 09:29:29;;;;;;;3.10;2.33;;;17.40;90.50;;;;;;5090997;28;20483;-70
2022/10/28 09:32:05;;;;;;;3.23;2.60;;;17.40;90.40;;;;;;5071908;28;20460;-69
2022/10/28 09:34:40;;;;;;;5.00;2.67;;;17.40;90.40;;;;;;5091955;28;20476;-69
2022/10/28 09:37:18;;;;;;;3.00;2.80;;;17.40;90.40;;;;;;5091537;28;20870;-70
2022/10/28 09:39:50;;;;;;;2.30;2.10;;;17.40;90.30;;;;;;5089879;28;20461;-69
2022/10/28 09:42:23;;;;;;;2.73;2.30;;;17.40;90.30;;;;;;5074182;28;20437;-69
2022/10/28 09:44:58;;;;;;;7.80;2.50;;;17.50;90.30;;;;;;5072550;28;20536;-70
2022/10/28 09:47:35;;;;;;;3.23;2.23;;;17.40;90.30;;;;;;5084155;28;20460;-69
2022/10/28 09:50:07;;;;;;;2.73;2.47;;;17.50;90.40;;;;;;5090560;28;20432;-70
2022/10/28 09:52:43;;;;;;;4.00;3.10;;;17.50;90.30;;;;;;5092004;28;20524;-70
2022/10/28 09:55:20;;;;;;;7.33;2.43;;;17.50;90.30;;;;;;5071736;28;20638;-70
2022/10/28 09:57:49;;;;;;;4.63;2.40;;;17.50;90.20;;;;;;5079249;28;20813;-69
2022/10/28 10:00:21;;;;;;;3.33;3.00;;;17.50;90.20;;;;;;5090927;28;20483;-70
2022/10/28 10:02:57;;;;;;;3.23;2.70;;;17.50;90.20;;;;;;5089182;28;20540;-69
2022/10/28 10:05:29;;;;;;;4.30;2.50;;;17.50;90.20;;;;;;5086893;28;20500;-69
2022/10/28 10:08:02;;;;;;;4.20;2.70;;;17.50;90.20;;;;;;5072346;28;20949;-69
2022/10/28 10:10:36;;;;;;;5.00;2.73;;;17.50;90.20;;;;;;5068268;28;20533;-72
2022/10/28 10:13:06;;;;;;;6.50;3.60;;;17.60;90.20;;;;;;5071267;28;20522;-72
2022/10/28 10:15:40;;;;;;;5.90;3.50;;;17.60;90.90;;;;;;5072276;28;20872;-69
2022/10/28 10:18:17;;;;;;;5.83;2.80;;;17.80;90.60;;;;;;5069912;28;20473;-69
2022/10/28 10:20:49;;;;;;;7.50;2.90;;;17.80;90.30;;;;;;5069768;28;20468;-70
2022/10/28 10:23:26;;;;;;;6.13;3.07;;;17.80;90.30;;;;;;5090993;28;20453;-69
2022/10/28 10:25:59;;;;;;;9.17;4.33;;;17.80;90.30;;;;;;5088163;28;20467;-72
2022/10/28 10:28:29;;;;;;;5.47;2.70;;;17.80;90.10;;;;;;5056024;28;20445;-72
2022/10/28 10:31:00;;;;;;;7.47;3.50;;;17.80;90.00;;;;;;5090776;28;20499;-72
2022/10/28 10:33:36;;;;;;;11.03;4.03;;;17.80;90.00;;;;;;5091745;28;20468;-72
2022/10/28 10:36:16;;;;;;;3.90;3.50;;;17.80;90.10;;;;;;5090974;28;21046;-72
2022/10/28 10:38:49;;;;;;;6.13;3.60;;;17.70;90.20;;;;;;5090863;28;20453;-72
2022/10/28 10:41:33;;;;;;;5.53;3.10;;;17.70;90.30;;;;;;5072574;28;20465;-72
2022/10/28 10:44:24;;;;;;;7.70;2.97;;;17.70;90.30;;;;;;5074215;28;20874;-72
2022/10/28 10:47:22;;;;;;;8.53;3.53;;;17.70;90.30;;;;;;5072767;28;20564;-72
2022/10/28 10:49:54;;;;;;;6.23;4.20;;;17.70;90.30;;;;;;5092039;28;21035;-72
2022/10/28 10:52:24;;;;;;;5.07;3.00;;;17.70;90.30;;;;;;5090643;28;20426;-72
2022/10/28 10:55:01;;;;;;;6.90;3.40;;;17.70;90.30;;;;;;5068305;28;20827;-72
2022/10/28 10:57:31;;;;;;;7.23;3.27;;;17.70;90.30;;;;;;5053365;28;20430;-72
2022/10/28 11:00:00;;;;;;;3.53;3.13;;;17.70;90.30;;;;;;5069678;28;20442;-72
2022/10/28 11:02:34;;;;;;;4.63;3.43;;;17.70;90.30;;;;;;5078717;28;20510;-72
2022/10/28 11:05:09;;;;;;;7.67;3.20;;;17.70;90.30;;;;;;5072477;28;20539;-70
2022/10/28 11:07:46;;;;;;;5.10;3.67;;;17.70;90.30;;;;;;5091917;28;20929;-70
2022/10/28 11:10:22;;;;;;;2.53;2.33;;;17.70;90.30;;;;;;5073273;28;20520;-70
2022/10/28 11:12:53;;;;;;;3.90;2.70;;;17.70;90.30;;;;;;5057807;28;20441;-70
2022/10/28 11:15:27;;;;;;;4.00;2.67;;;17.70;90.30;;;;;;5062264;28;20536;-69
2022/10/28 11:18:01;;;;;;;6.50;3.17;;;17.70;90.30;;;;;;5071426;28;20833;-69
2022/10/28 11:21:09;;;;;;;7.33;3.30;;;17.70;90.30;;;;;;5072394;28;20777;-70
2022/10/28 11:24:21;;;;;;;8.40;3.20;;;17.70;90.30;;;;;;5089293;28;20442;-69
2022/10/28 11:27:35;;;;;;;5.17;3.30;;;17.70;90.30;;;;;;5087634;28;20503;-69
2022/10/28 11:30:25;;;;;;;4.20;3.20;;;17.70;90.30;;;;;;5090855;28;20439;-69
2022/10/28 11:33:08;;;;;;;7.60;2.87;;;17.70;90.30;;;;;;5090406;28;20444;-70
2022/10/28 11:36:11;;;;;;;4.40;2.70;;;17.70;90.30;;;;;;5089052;28;21070;-70
2022/10/28 11:38:55;;;;;;;5.17;2.90;;;17.70;90.30;;;;;;5091622;28;20472;-70
2022/10/28 11:41:36;;;;;;;4.87;2.77;;;17.70;90.30;;;;;;5088771;28;20478;-69
2022/10/28 11:44:15;;;;;;;3.77;2.67;;;17.70;90.30;;;;;;5089728;28;20782;-70
2022/10/28 11:46:55;;;;;;;5.13;3.10;;;17.70;90.30;;;;;;5088279;28;20484;-70
2022/10/28 11:50:16;;;;;;;4.83;3.27;;;17.70;90.30;;;;;;5073130;28;20725;-70
2022/10/28 11:53:05;;;;;;;6.27;3.20;;;17.70;90.30;;;;;;5090618;28;20778;-70
2022/10/28 11:55:39;;;;;;;4.57;2.30;;;17.70;90.30;;;;;;5089254;28;20426;-70
2022/10/28 11:58:19;;;;;;;2.93;2.53;;;17.70;90.30;;;;;;5089539;28;20453;-70
2022/10/28 12:01:02;;;;;;;6.37;2.50;;;17.70;90.30;;;;;;5085984;28;20479;-70
2022/10/28 12:04:03;;;;;;;4.83;2.60;;;17.70;90.30;;;;;;5089195;28;20448;-69
2022/10/28 12:06:48;;;;;;;3.30;2.17;;;17.70;90.30;;;;;;5049802;28;21020;-69
2022/10/28 12:09:26;;;;;;;4.53;2.70;;;17.70;90.30;;;;;;5087647;28;20485;-69
2022/10/28 12:12:07;;;;;;;2.60;2.33;;;17.70;90.30;;;;;;5075960;28;20471;-69
2022/10/28 12:14:46;;;;;;;5.83;3.40;;;17.70;90.30;;;;;;5063281;28;20814;-72
2022/10/28 12:17:21;;;;;;;6.40;3.33;;;18.10;87.20;;;;;;5082970;28;20461;-69
2022/10/28 12:19:57;;;;;;;7.47;3.80;;;18.20;86.30;;;;;;5081918;28;20585;-69
2022/10/28 12:22:35;;;;;;;12.93;4.40;;;18.40;84.80;;;;;;5069199;28;20440;-70
2022/10/28 12:25:13;;;;;;;7.50;3.40;;;18.50;83.90;;;;;;5062265;28;20465;-70
2022/10/28 12:27:46;;;;;;;10.83;3.90;;;18.50;83.20;;;;;;5071220;28;20441;-70
2022/10/28 12:30:20;;;;;;;5.87;3.70;;;18.50;84.60;;;;;;5081728;28;20500;-70
2022/10/28 12:32:52;;;;;;;9.40;4.00;;;18.60;83.10;;;;;;5082034;28;20447;-70
2022/10/28 12:35:25;;;;;;;8.07;3.87;;;18.60;82.80;;;;;;5067797;28;20928;-70
2022/10/28 12:38:02;;;;;;;5.63;3.30;;;18.60;82.80;;;;;;5074059;28;20433;-72
2022/10/28 12:40:39;;;;;;;8.10;3.60;;;18.50;83.30;;;;;;5071531;28;20443;-73
2022/10/28 12:43:15;;;;;;;4.57;3.30;;;18.40;83.80;;;;;;5087122;28;20473;-72
2022/10/28 12:45:47;;;;;;;7.40;4.17;;;18.30;84.30;;;;;;5069486;28;20476;-72
2022/10/28 12:48:22;;;;;;;5.60;3.60;;;18.20;84.70;;;;;;5068674;28;20464;-72
2022/10/28 12:50:54;;;;;;;6.97;3.57;;;18.20;85.20;;;;;;5057217;28;20441;-72
2022/10/28 12:53:30;;;;;;;7.07;3.63;;;18.10;85.50;;;;;;5087455;28;20425;-70
2022/10/28 12:56:04;;;;;;;4.87;3.20;;;18.10;87.10;;;;;;5078403;28;20456;-70
2022/10/28 12:58:41;;;;;;;3.17;2.87;;;18.10;86.20;;;;;;5087439;28;20510;-70
2022/10/28 13:01:13;;;;;;;7.40;2.90;;;18.00;86.20;;;;;;5068061;28;20544;-70
2022/10/28 13:03:42;;;;;;;5.37;2.60;;;18.10;86.30;;;;;;5067027;28;20468;-70
2022/10/28 13:06:41;;;;;;;7.30;2.77;;;18.00;86.30;;;;;;5084000;28;21240;-69
2022/10/28 13:09:33;;;;;;;6.47;3.50;;;18.00;86.50;;;;;;5069138;28;20450;-70
2022/10/28 13:12:45;;;;;;;6.60;4.00;;;18.00;86.70;;;;;;5068952;28;20468;-70
2022/10/28 13:15:37;;;;;;;3.80;2.77;;;18.00;86.80;;;;;;5068226;28;20448;-70
2022/10/28 13:18:28;;;;;;;6.70;3.03;;;18.00;86.90;;;;;;5065768;28;20465;-70